Time;durP1;ratioP1;P1;durP2;ratioP2;P2;SDS_P1;SDS_P2;PMS_P1;PMS_P2;Temp;Humidity;BMP_temperature;BMP_pressure;BME280_temperature;BME280_humidity;BME280_pressure;Samples;Min_cycle;Max_cycle;Signal;HPM_P1;HPM_P2
2022/04/04 00:00:54;;;;;;;;;24.50;20.00;;;;;6.61;53.47;102059.63;5041429;28;45469;-68
2022/04/04 00:03:20;;;;;;;;;19.00;17.25;;;;;6.58;53.80;102051.00;5041852;28;45217;-64
2022/04/04 00:05:47;;;;;;;;;18.00;15.75;;;;;6.56;53.86;102064.13;5041642;28;45432;-66
2022/04/04 00:08:13;;;;;;;;;26.75;19.00;;;;;6.57;54.31;102052.75;5045747;28;45711;-66
2022/04/04 00:10:39;;;;;;;;;19.25;15.00;;;;;6.58;53.90;102058.84;5041520;28;45460;-67
2022/04/04 00:13:05;;;;;;;;;20.75;17.50;;;;;6.57;53.92;102052.75;5041544;28;45499;-64
2022/04/04 00:15:30;;;;;;;;;22.75;18.25;;;;;6.57;53.65;102058.00;5041610;28;45328;-66
2022/04/04 00:17:56;;;;;;;;;22.75;18.25;;;;;6.55;54.39;102056.28;5038717;28;46963;-66
2022/04/04 00:20:22;;;;;;;;;15.00;14.75;;;;;6.54;53.83;102068.50;5053483;28;45348;-66
2022/04/04 00:22:48;;;;;;;;;23.75;18.50;;;;;6.54;54.56;102050.19;5061117;28;45317;-61
2022/04/04 00:25:14;;;;;;;;;18.00;15.75;;;;;6.53;54.30;102055.47;5061614;28;45384;-67
2022/04/04 00:27:40;;;;;;;;;21.50;19.00;;;;;6.51;54.25;102047.66;5061116;28;45311;-64
2022/04/04 00:30:07;;;;;;;;;10.00;7.50;;;;;6.50;54.41;102058.16;5060901;28;45334;-63
2022/04/04 00:32:33;;;;;;;;;19.50;18.00;;;;;6.48;54.56;102049.44;5061270;28;45244;-62
2022/04/04 00:35:00;;;;;;;;;22.75;16.00;;;;;6.47;54.24;102058.19;5061330;28;45248;-70
2022/04/04 00:37:26;;;;;;;;;19.50;17.00;;;;;6.44;54.89;102046.06;5060942;28;46006;-64
2022/04/04 00:39:51;;;;;;;;;23.75;17.00;;;;;6.40;54.96;102053.13;5060653;28;45300;-65
2022/04/04 00:42:17;;;;;;;;;23.75;19.00;;;;;6.36;54.39;102045.34;5048528;28;45348;-63
2022/04/04 00:44:45;;;;;;;;;26.25;18.25;;;;;6.32;53.97;102041.06;5061195;28;45316;-64
2022/04/04 00:47:11;;;;;;;;;16.50;14.75;;;;;6.29;54.69;102043.75;5060985;28;45352;-71
2022/04/04 00:49:37;;;;;;;;;18.25;15.25;;;;;6.29;54.79;102042.00;5060272;28;45293;-64
2022/04/04 00:52:02;;;;;;;;;16.75;14.50;;;;;6.29;54.57;102047.22;5060846;28;45593;-68
2022/04/04 00:54:28;;;;;;;;;19.25;15.25;;;;;6.29;54.91;102042.00;5059533;28;45375;-64
2022/04/04 00:56:55;;;;;;;;;19.25;17.25;;;;;6.28;54.52;102039.41;5040836;28;45253;-65
2022/04/04 00:59:22;;;;;;;;;19.75;15.00;;;;;6.27;55.14;102041.19;5040813;28;45535;-62
2022/04/04 01:01:49;;;;;;;;;21.50;18.50;;;;;6.26;54.73;102047.31;5041270;28;45431;-73
2022/04/04 01:04:16;;;;;;;;;0.00;0.00;;;;;6.25;55.19;102040.34;5053771;28;45673;-67
2022/04/04 01:06:43;;;;;;;;;19.75;17.50;;;;;6.22;54.46;102036.91;5060447;28;45217;-66
2022/04/04 01:09:14;;;;;;;;;24.75;19.50;;;;;6.22;55.47;102040.41;5060357;28;45482;-62
2022/04/04 01:12:09;;;;;;;;;19.00;16.25;;;;;6.21;55.14;102037.81;5050643;28;45309;-69
2022/04/04 01:14:37;;;;;;;;;20.75;17.50;;;;;6.18;55.38;102027.44;5041057;28;45182;-66
2022/04/04 01:17:04;;;;;;;;;24.75;23.50;;;;;6.16;55.17;102032.66;5040454;28;45325;-67
2022/04/04 01:19:31;;;;;;;;;25.75;20.00;;;;;6.14;55.06;102034.47;5040708;28;45442;-61
2022/04/04 01:21:57;;;;;;;;;18.25;16.00;;;;;6.13;55.33;102032.75;5040487;28;45348;-63
2022/04/04 01:24:24;;;;;;;;;21.50;18.75;;;;;6.11;55.18;102029.31;5049112;28;45493;-62
2022/04/04 01:26:51;;;;;;;;;23.00;16.25;;;;;6.10;54.66;102023.22;5051013;28;45562;-63
2022/04/04 01:29:18;;;;;;;;;21.25;15.25;;;;;6.10;55.04;102022.34;5032910;28;45393;-66
2022/04/04 01:31:43;;;;;;;;;19.25;14.00;;;;;6.08;54.73;102022.38;5049373;28;45325;-66
2022/04/04 01:34:09;;;;;;;;;21.00;15.75;;;;;6.07;55.49;102020.63;5050562;28;45405;-66
2022/04/04 01:36:34;;;;;;;;;19.25;18.00;;;;;6.05;55.03;102019.81;5049016;28;45719;-67
2022/04/04 01:39:00;;;;;;;;;17.50;17.50;;;;;6.02;54.73;102016.41;5051150;28;45361;-65
2022/04/04 01:41:26;;;;;;;;;19.25;17.75;;;;;5.99;54.53;102016.44;5054425;28;45561;-65
2022/04/04 01:43:52;;;;;;;;;18.00;15.25;;;;;5.97;54.66;102018.25;5054694;28;45425;-66
2022/04/04 01:46:24;;;;;;;;;17.75;13.50;;;;;5.93;55.16;102009.59;5054737;28;46061;-66
2022/04/04 01:48:53;;;;;;;;;20.00;15.25;;;;;5.89;54.66;102007.91;5053680;28;45410;-65
2022/04/04 01:51:19;;;;;;;;;18.50;15.00;;;;;5.88;55.18;102009.66;5043732;28;45437;-66
2022/04/04 01:53:45;;;;;;;;;14.25;13.50;;;;;5.88;54.78;102004.41;5050832;28;45154;-66
2022/04/04 01:56:11;;;;;;;;;16.50;13.00;;;;;5.87;54.70;102017.53;5049118;28;45439;-66
2022/04/04 01:58:38;;;;;;;;;20.00;14.25;;;;;5.86;54.80;102000.13;5043839;28;45241;-66
2022/04/04 02:01:12;;;;;;;;;16.00;11.50;;;;;5.84;55.18;101997.50;5043403;28;45227;-66
2022/04/04 02:03:38;;;;;;;;;11.50;10.75;;;;;5.83;54.53;101997.56;5043939;28;45338;-66
2022/04/04 02:06:04;;;;;;;;;17.25;12.50;;;;;5.81;54.33;101994.09;5043375;28;45458;-66
2022/04/04 02:08:34;;;;;;;;;13.00;13.00;;;;;5.79;54.75;101993.28;5043545;28;45452;-67
2022/04/04 02:11:02;;;;;;;;;11.75;11.75;;;;;5.79;55.12;101994.16;5043737;28;46447;-67
2022/04/04 02:13:28;;;;;;;;;20.50;14.00;;;;;5.78;54.77;101987.19;5043690;28;45360;-66
2022/04/04 02:15:56;;;;;;;;;12.00;11.25;;;;;5.78;54.54;101986.34;5043038;28;46313;-66
2022/04/04 02:18:22;;;;;;;;;13.50;11.00;;;;;5.78;54.87;101984.59;5043419;28;45400;-66
2022/04/04 02:20:49;;;;;;;;;16.75;16.75;;;;;5.76;55.06;101981.13;5043438;28;45333;-67
2022/04/04 02:23:18;;;;;;;;;16.75;13.25;;;;;5.71;55.56;101972.53;5043375;28;45332;-66
2022/04/04 02:25:48;;;;;;;;;19.00;15.00;;;;;5.68;54.80;101976.94;5043057;28;46417;-66
2022/04/04 02:28:15;;;;;;;;;14.50;12.75;;;;;5.64;54.84;101973.53;5043316;28;45314;-66
2022/04/04 02:30:41;;;;;;;;;21.00;17.00;;;;;5.64;55.37;101976.13;5025166;28;45246;-66
2022/04/04 02:33:07;;;;;;;;;19.50;18.25;;;;;5.64;55.09;101972.66;5043304;28;45536;-66
2022/04/04 02:35:33;;;;;;;;;16.50;14.75;;;;;5.62;55.36;101972.69;5042966;28;45368;-66
2022/04/04 02:37:59;;;;;;;;;21.75;15.25;;;;;5.61;55.42;101970.97;5042950;28;45224;-66
2022/04/04 02:40:25;;;;;;;;;15.00;14.25;;;;;5.59;56.51;101967.50;5053534;28;45407;-66
2022/04/04 02:42:51;;;;;;;;;15.75;13.25;;;;;5.60;55.62;101967.47;5054419;28;45397;-67
2022/04/04 02:45:16;;;;;;;;;18.75;15.25;;;;;5.59;56.16;101970.13;5062829;28;45324;-67
2022/04/04 02:47:43;;;;;;;;;15.75;13.75;;;;;5.57;55.78;101964.06;5062782;28;45268;-66
2022/04/04 02:50:10;;;;;;;;;21.25;16.75;;;;;5.53;56.08;101949.31;5062557;28;45421;-66
2022/04/04 02:52:35;;;;;;;;;22.00;17.50;;;;;5.55;56.02;101963.25;5061898;28;45488;-67
2022/04/04 02:57:46;;;;;;;;;17.25;16.25;;;;;5.52;56.36;101958.91;5051952;28;45371;-66
2022/04/04 03:00:12;;;;;;;;;20.25;17.25;;;;;5.51;56.73;101961.56;5061030;28;45609;-66
2022/04/04 03:02:38;;;;;;;;;18.50;15.25;;;;;5.50;56.13;101967.69;5062770;28;45346;-66
2022/04/04 03:05:03;;;;;;;;;20.25;15.25;;;;;5.49;56.42;101953.75;5062449;28;46106;-67
2022/04/04 03:07:29;;;;;;;;;16.25;15.75;;;;;5.48;55.82;101953.78;5062261;28;45494;-67
2022/04/04 03:09:54;;;;;;;;;17.00;13.25;;;;;5.47;56.16;101954.69;5063059;28;45209;-68
2022/04/04 03:12:20;;;;;;;;;16.00;13.75;;;;;5.46;56.48;101958.19;5061401;28;45431;-66
2022/04/04 03:14:45;;;;;;;;;14.00;13.00;;;;;5.45;55.83;101953.84;5062855;28;46107;-66
2022/04/04 03:17:11;;;;;;;;;20.00;16.25;;;;;5.43;56.52;101956.47;5062457;28;45393;-66
2022/04/04 03:19:36;;;;;;;;;17.00;13.75;;;;;5.40;55.76;101951.31;5062505;28;45333;-67
2022/04/04 03:22:02;;;;;;;;;14.75;13.25;;;;;5.38;56.50;101947.88;5063018;28;45304;-66
2022/04/04 03:24:27;;;;;;;;;23.25;17.25;;;;;5.36;56.76;101946.16;5063664;28;46032;-66
2022/04/04 03:26:53;;;;;;;;;9.00;8.50;;;;;5.36;56.98;101943.56;5063051;28;45402;-67
2022/04/04 03:29:18;;;;;;;;;20.00;16.25;;;;;5.33;56.59;101940.13;5063064;28;45238;-66
2022/04/04 03:31:44;;;;;;;;;15.75;13.75;;;;;5.31;56.58;101934.06;5062512;28;45343;-67
2022/04/04 03:34:09;;;;;;;;;21.25;17.00;;;;;5.30;57.07;101934.97;5062359;28;45245;-67
2022/04/04 03:36:35;;;;;;;;;14.75;11.75;;;;;5.30;57.08;101931.50;5061991;28;45316;-66
2022/04/04 03:39:00;;;;;;;;;14.00;9.50;;;;;5.28;56.46;101930.63;5062414;28;45355;-66
2022/04/04 03:41:26;;;;;;;;;15.25;12.00;;;;;5.27;55.91;101924.53;5048688;28;45583;-66
2022/04/04 03:43:51;;;;;;;;;10.75;10.25;;;;;5.26;55.62;101919.34;5062097;28;45216;-66
2022/04/04 03:46:17;;;;;;;;;15.50;11.25;;;;;5.26;55.95;101920.22;5062050;28;45321;-67
2022/04/04 03:48:42;;;;;;;;;15.75;8.75;;;;;5.24;55.85;101923.75;5062068;28;45301;-66
2022/04/04 03:51:09;;;;;;;;;19.50;13.75;;;;;5.24;55.94;101914.16;5062241;28;45474;-66
2022/04/04 03:53:35;;;;;;;;;21.75;21.50;;;;;5.23;55.81;101915.06;5061600;28;45466;-66
2022/04/04 03:56:00;;;;;;;;;37.00;32.75;;;;;5.23;55.53;101912.44;5049596;28;45455;-66
2022/04/04 03:58:26;;;;;;;;;24.25;21.50;;;;;5.25;55.71;101899.34;5041835;28;45549;-66
2022/04/04 04:00:51;;;;;;;;;32.50;23.75;;;;;5.24;55.38;101906.31;5041633;28;45412;-66
2022/04/04 04:03:17;;;;;;;;;19.00;19.00;;;;;5.23;56.05;101904.63;5041173;28;45894;-66
2022/04/04 04:05:42;;;;;;;;;14.00;14.00;;;;;5.23;55.67;101904.63;5041697;28;45431;-66
2022/04/04 04:08:08;;;;;;;;;16.00;13.00;;;;;5.21;56.05;101906.41;5041477;28;45423;-66
2022/04/04 04:10:34;;;;;;;;;10.50;10.00;;;;;5.22;55.30;101894.19;5041669;28;45215;-66
2022/04/04 04:13:01;;;;;;;;;10.00;9.25;;;;;5.21;55.88;101895.94;5039358;28;46396;-66
2022/04/04 04:15:27;;;;;;;;;15.75;12.75;;;;;5.22;55.10;101895.06;5054578;28;45360;-66
2022/04/04 04:17:53;;;;;;;;;12.25;12.00;;;;;5.21;55.44;101884.63;5061817;28;45363;-66
2022/04/04 04:20:19;;;;;;;;;17.25;10.00;;;;;5.23;55.11;101888.06;5061549;28;45181;-66
2022/04/04 04:23:05;;;;;;;;;14.75;11.50;;;;;5.23;56.06;101886.31;5061337;28;46211;-66
2022/04/04 04:25:33;;;;;;;;;19.75;13.50;;;;;5.25;55.42;101883.69;5061428;28;45335;-66
2022/04/04 04:28:00;;;;;;;;;24.25;16.25;;;;;5.25;55.64;101879.31;5061612;28;45299;-66
2022/04/04 04:30:26;;;;;;;;;24.75;18.00;;;;;5.26;55.39;101886.25;5061342;28;45321;-67
2022/04/04 04:32:55;;;;;;;;;17.00;11.75;;;;;5.24;55.49;101882.81;5061323;28;45348;-67
2022/04/04 04:35:22;;;;;;;;;20.00;14.75;;;;;5.24;56.21;101884.56;5061286;28;45622;-66
2022/04/04 04:37:47;;;;;;;;;38.75;17.50;;;;;5.23;55.08;101875.88;5061294;28;45346;-66
2022/04/04 04:40:14;;;;;;;;;18.50;13.50;;;;;5.22;55.78;101868.94;5057999;28;45248;-66
2022/04/04 04:42:42;;;;;;;;;26.50;20.75;;;;;5.22;55.64;101870.69;5051040;28;46168;-66
2022/04/04 04:45:07;;;;;;;;;18.75;14.75;;;;;5.21;55.91;101868.94;5060941;28;45188;-66
2022/04/04 04:47:33;;;;;;;;;20.25;10.50;;;;;5.22;55.35;101868.06;5061307;28;45344;-66
2022/04/04 04:50:00;;;;;;;;;16.75;11.25;;;;;5.20;56.40;101870.69;5061063;28;45506;-66
2022/04/04 04:52:27;;;;;;;;;14.25;10.50;;;;;5.19;56.05;101866.34;5060818;28;45885;-66
2022/04/04 04:54:53;;;;;;;;;14.00;13.50;;;;;5.18;55.57;101866.41;5057930;28;45336;-66
2022/04/04 04:57:20;;;;;;;;;16.00;11.25;;;;;5.16;55.52;101865.56;5041003;28;45304;-66
2022/04/04 04:59:47;;;;;;;;;16.25;12.75;;;;;5.14;55.99;101860.38;5040899;28;45592;-66
2022/04/04 05:02:12;;;;;;;;;12.50;11.00;;;;;5.13;55.92;101861.25;5040612;28;45283;-66
2022/04/04 05:04:38;;;;;;;;;11.00;6.00;;;;;5.13;55.98;101871.69;5040914;28;45266;-66
2022/04/04 05:07:05;;;;;;;;;16.00;11.00;;;;;5.11;55.76;101868.25;5040757;28;45314;-66
2022/04/04 05:09:30;;;;;;;;;15.25;10.00;;;;;5.10;55.91;101865.69;5040838;28;45242;-66
2022/04/04 05:11:56;;;;;;;;;17.75;13.75;;;;;5.10;55.66;101863.06;5040706;28;46296;-67
2022/04/04 05:14:21;;;;;;;;;14.25;13.25;;;;;5.10;56.23;101866.53;5021781;28;45337;-66
2022/04/04 05:16:48;;;;;;;;;10.00;9.25;;;;;5.11;55.92;101868.25;5040704;28;45331;-66
2022/04/04 05:19:19;;;;;;;;;13.00;13.00;;;;;5.11;55.11;101862.19;5040622;28;45257;-66
2022/04/04 05:21:45;;;;;;;;;13.00;11.75;;;;;5.11;55.30;101860.41;5040200;28;45448;-66
2022/04/04 05:24:11;;;;;;;;;11.00;9.50;;;;;5.14;55.70;101865.59;5040552;28;45290;-67
2022/04/04 05:26:37;;;;;;;;;15.00;13.00;;;;;5.17;55.58;101864.69;5040582;28;45455;-66
2022/04/04 05:29:03;;;;;;;;;18.00;14.00;;;;;5.18;55.02;101867.25;5040654;28;45356;-66
2022/04/04 05:31:30;;;;;;;;;16.25;10.50;;;;;5.20;55.49;101856.78;5040182;28;45482;-67
2022/04/04 05:33:57;;;;;;;;;10.00;8.00;;;;;5.20;55.46;101857.63;5058687;28;45458;-67
2022/04/04 05:36:24;;;;;;;;;16.50;14.00;;;;;5.21;55.43;101859.38;5049063;28;45317;-66
2022/04/04 05:38:53;;;;;;;;;16.50;12.50;;;;;5.21;54.70;101863.72;5058927;28;45350;-66
2022/04/04 05:41:19;;;;;;;;;12.00;12.00;;;;;5.21;55.40;101858.50;5047436;28;46173;-64
2022/04/04 05:43:46;;;;;;;;;16.50;10.00;;;;;5.22;55.35;101858.50;5059318;28;45275;-66
2022/04/04 05:46:13;;;;;;;;;16.00;14.25;;;;;5.22;55.49;101863.72;5060687;28;45323;-69
2022/04/04 05:48:38;;;;;;;;;13.25;13.00;;;;;5.25;55.75;101858.41;5061159;28;45615;-67
2022/04/04 05:51:04;;;;;;;;;16.50;13.25;;;;;5.26;55.06;101857.53;5060211;28;45496;-67
2022/04/04 05:53:30;;;;;;;;;16.25;14.00;;;;;5.29;55.07;101852.25;5042087;28;45603;-64
2022/04/04 05:55:55;;;;;;;;;18.50;14.00;;;;;5.32;55.49;101849.56;5047513;28;45316;-64
2022/04/04 05:58:21;;;;;;;;;16.75;11.50;;;;;5.36;55.48;101854.72;5040232;28;45363;-64
2022/04/04 06:00:46;;;;;;;;;14.00;13.25;;;;;5.47;55.13;101850.16;5039721;28;45392;-64
2022/04/04 06:03:12;;;;;;;;;20.75;13.00;;;;;5.63;55.10;101845.47;5040081;28;45315;-64
2022/04/04 06:05:38;;;;;;;;;14.50;13.75;;;;;5.86;54.89;101844.09;5038663;28;45270;-63
2022/04/04 06:08:03;;;;;;;;;11.50;11.50;;;;;6.10;54.10;101847.09;5047372;28;45600;-65
2022/04/04 06:10:29;;;;;;;;;19.50;14.00;;;;;6.39;53.75;101839.38;5053000;28;45528;-65
2022/04/04 06:12:54;;;;;;;;;10.00;10.00;;;;;6.69;53.86;101840.38;5047320;28;45316;-66
2022/04/04 06:15:20;;;;;;;;;17.25;13.00;;;;;6.97;53.57;101843.16;5053078;28;45325;-62
2022/04/04 06:17:46;;;;;;;;;15.25;14.75;;;;;7.22;55.75;101839.88;5053727;28;45315;-59
2022/04/04 06:20:13;;;;;;;;;14.50;12.25;;;;;7.48;53.49;101831.25;5039410;28;45338;-59
2022/04/04 06:22:40;;;;;;;;;13.00;11.25;;;;;7.57;52.57;101839.72;5039432;28;45367;-59
2022/04/04 06:25:09;;;;;;;;;18.75;17.25;;;;;7.59;51.99;101837.06;5040033;28;45340;-59
2022/04/04 06:27:36;;;;;;;;;15.00;12.75;;;;;7.60;51.90;101837.94;5050441;28;45482;-59
2022/04/04 06:30:03;;;;;;;;;20.75;12.75;;;;;7.66;51.82;101835.09;5063107;28;46257;-58
2022/04/04 06:32:29;;;;;;;;;16.25;11.50;;;;;7.71;51.02;101831.44;5063240;28;45281;-61
2022/04/04 06:34:54;;;;;;;;;16.00;15.75;;;;;7.72;50.83;101830.53;5062355;28;45579;-61
2022/04/04 06:37:20;;;;;;;;;18.25;10.75;;;;;7.73;50.84;101832.25;5062483;28;45437;-60
2022/04/04 06:39:45;;;;;;;;;15.75;13.50;;;;;7.77;51.10;101835.66;5061035;28;45689;-60
2022/04/04 06:42:11;;;;;;;;;14.50;13.00;;;;;7.76;50.61;101826.09;5047178;28;45629;-59
2022/04/04 06:44:37;;;;;;;;;17.75;13.75;;;;;7.73;50.36;101832.25;5060769;28;45482;-60
2022/04/04 06:47:04;;;;;;;;;17.00;12.25;;;;;7.72;50.83;101827.91;5061309;28;45375;-59
2022/04/04 06:49:29;;;;;;;;;22.75;14.50;;;;;7.72;50.60;101824.44;5062308;28;46350;-59
2022/04/04 06:51:56;;;;;;;;;16.25;14.00;;;;;7.76;50.44;101828.69;5062452;28;45302;-59
2022/04/04 06:54:22;;;;;;;;;13.25;11.00;;;;;7.82;50.47;101837.25;5062905;28;45215;-59
2022/04/04 06:56:49;;;;;;;;;12.00;11.00;;;;;7.87;50.12;101836.25;5043557;28;45618;-60
2022/04/04 06:59:16;;;;;;;;;15.00;11.75;;;;;7.83;50.23;101831.09;5042584;28;46299;-60
2022/04/04 07:01:43;;;;;;;;;10.75;9.75;;;;;7.82;49.76;101824.13;5042206;28;45325;-60
2022/04/04 07:04:10;;;;;;;;;12.25;9.50;;;;;7.80;49.61;101819.81;5042542;28;45312;-60
2022/04/04 07:06:36;;;;;;;;;9.00;7.75;;;;;7.80;50.63;101814.56;5042226;28;45417;-59
2022/04/04 07:09:01;;;;;;;;;13.00;11.25;;;;;7.84;49.17;101819.69;5042319;28;45252;-59
2022/04/04 07:11:27;;;;;;;;;8.25;6.50;;;;;7.84;50.40;101814.44;5048430;28;45308;-60
2022/04/04 07:13:53;;;;;;;;;7.75;5.75;;;;;7.92;49.99;101814.22;5052400;28;45306;-59
2022/04/04 07:16:18;;;;;;;;;7.50;6.00;;;;;8.07;48.35;101810.25;5052886;28;45236;-66
2022/04/04 07:18:44;;;;;;;;;5.75;5.75;;;;;8.08;47.82;101802.31;5053299;28;45939;-66
2022/04/04 07:21:10;;;;;;;;;14.25;8.75;;;;;8.06;47.74;101805.91;5051507;28;45344;-66
2022/04/04 07:23:36;;;;;;;;;11.50;6.25;;;;;8.04;47.49;101800.69;5032912;28;45296;-66
2022/04/04 07:26:01;;;;;;;;;9.75;7.50;;;;;8.02;47.50;101794.66;5048404;28;45474;-66
2022/04/04 07:28:27;;;;;;;;;6.00;6.00;;;;;7.99;47.20;101805.25;5052430;28;45546;-66
2022/04/04 07:30:54;;;;;;;;;11.00;7.25;;;;;7.94;47.20;101791.41;5052646;28;45391;-66
2022/04/04 07:33:20;;;;;;;;;11.75;10.00;;;;;7.94;46.93;101790.53;5052636;28;45352;-66
2022/04/04 07:35:46;;;;;;;;;8.25;6.00;;;;;7.90;47.18;101784.56;5051090;28;45163;-66
2022/04/04 07:38:13;;;;;;;;;14.25;6.50;;;;;7.90;47.31;101787.19;5049327;28;45238;-66
2022/04/04 07:40:39;;;;;;;;;11.75;11.00;;;;;7.93;47.12;101780.97;5056185;28;45471;-67
2022/04/04 07:43:04;;;;;;;;;10.00;8.50;;;;;7.95;46.32;101776.53;5049420;28;45540;-66
2022/04/04 07:45:31;;;;;;;;;13.00;11.50;;;;;7.97;46.54;101778.19;5042894;28;45575;-67
2022/04/04 07:47:58;;;;;;;;;8.25;6.50;;;;;7.99;46.11;101773.75;5055810;28;46152;-66
2022/04/04 07:50:23;;;;;;;;;10.00;9.25;;;;;8.06;46.23;101775.28;5036722;28;45444;-67
2022/04/04 07:52:50;;;;;;;;;10.75;8.75;;;;;8.11;46.61;101769.88;5041558;28;45324;-66
2022/04/04 07:55:16;;;;;;;;;10.75;7.50;;;;;8.16;46.31;101778.47;5054323;28;45858;-66
2022/04/04 07:57:42;;;;;;;;;11.50;8.00;;;;;8.22;46.23;101766.91;5041594;28;46624;-66
2022/04/04 08:00:11;;;;;;;;;11.50;8.75;;;;;8.27;45.76;101760.59;5054796;28;45167;-66
2022/04/04 08:02:38;;;;;;;;;8.50;8.00;;;;;8.36;45.85;101762.94;5041876;28;45281;-66
2022/04/04 08:05:08;;;;;;;;;8.50;6.00;;;;;8.42;45.29;101758.38;5042187;28;45312;-66
2022/04/04 08:07:34;;;;;;;;;10.00;6.00;;;;;8.48;45.35;101759.03;5041270;28;45504;-67
2022/04/04 08:09:59;;;;;;;;;10.50;5.50;;;;;8.53;44.89;101751.00;5041552;28;45410;-66
2022/04/04 08:12:26;;;;;;;;;7.75;6.25;;;;;8.59;44.96;101746.38;5041772;28;45321;-66
2022/04/04 08:14:52;;;;;;;;;5.25;4.25;;;;;8.66;44.52;101747.03;5041846;28;45364;-66
2022/04/04 08:17:18;;;;;;;;;7.00;7.00;;;;;8.71;44.48;101741.63;5041236;28;45938;-66
2022/04/04 08:19:43;;;;;;;;;5.75;5.00;;;;;8.74;43.98;101742.38;5041334;28;45278;-67
2022/04/04 08:22:09;;;;;;;;;6.00;4.25;;;;;8.78;43.60;101744.00;5043534;28;45562;-67
2022/04/04 08:24:34;;;;;;;;;3.75;3.00;;;;;8.79;43.40;101736.97;5041878;28;45407;-67
2022/04/04 08:26:59;;;;;;;;;5.50;5.50;;;;;8.75;43.48;101736.19;5042468;28;45925;-67
2022/04/04 08:29:25;;;;;;;;;10.75;5.00;;;;;8.78;42.82;101732.63;5041468;28;45312;-66
2022/04/04 08:31:51;;;;;;;;;5.25;3.00;;;;;8.79;43.09;101723.84;5046867;28;45249;-66
2022/04/04 08:34:16;;;;;;;;;6.25;6.00;;;;;8.88;43.02;101728.75;5049715;28;45460;-67
2022/04/04 08:36:42;;;;;;;;;6.50;5.00;;;;;8.97;42.96;101725.78;5050141;28;45506;-67
2022/04/04 08:39:07;;;;;;;;;5.50;3.75;;;;;9.04;42.65;101722.00;5051748;28;45181;-66
2022/04/04 08:41:35;;;;;;;;;4.25;3.50;;;;;9.07;42.27;101723.66;5031450;28;45347;-68
2022/04/04 08:44:03;;;;;;;;;6.00;6.00;;;;;9.10;42.29;101720.94;5061483;28;45392;-68
2022/04/04 08:46:30;;;;;;;;;4.25;4.25;;;;;9.13;42.03;101713.78;5059815;28;45492;-68
2022/04/04 08:48:58;;;;;;;;;7.25;4.75;;;;;9.22;41.76;101715.19;5060300;28;45439;-68
2022/04/04 08:51:26;;;;;;;;;7.00;5.50;;;;;9.35;42.13;101713.81;5060487;28;45220;-68
2022/04/04 08:53:52;;;;;;;;;7.00;6.25;;;;;9.50;41.79;101712.38;5061216;28;45454;-68
2022/04/04 08:56:21;;;;;;;;;5.50;3.25;;;;;9.64;41.41;101715.31;5045667;28;46184;-67
2022/04/04 08:58:47;;;;;;;;;5.50;4.50;;;;;9.79;40.96;101713.81;5040874;28;45183;-68
2022/04/04 09:01:13;;;;;;;;;15.50;5.25;;;;;9.93;40.87;101708.88;5040659;28;45285;-68
2022/04/04 09:03:38;;;;;;;;;3.00;3.00;;;;;10.06;40.75;101706.59;5041312;28;45173;-67
2022/04/04 09:06:05;;;;;;;;;4.00;3.00;;;;;10.25;40.81;101701.44;5040428;28;45244;-69
2022/04/04 09:08:46;;;;;;;;;3.00;2.50;;;;;10.48;39.46;101698.66;5041060;28;45391;-68
2022/04/04 09:11:13;;;;;;;;;3.00;2.00;;;;;10.62;39.23;101687.53;5040940;28;45373;-67
2022/04/04 09:13:39;;;;;;;;;3.75;3.25;;;;;10.66;39.60;101682.97;5041050;28;45590;-68
2022/04/04 09:16:06;;;;;;;;;4.50;2.00;;;;;10.75;39.33;101691.34;5040517;28;45304;-68
2022/04/04 09:18:41;;;;;;;;;4.00;2.00;;;;;10.74;38.81;101689.59;5022794;28;45632;-68
2022/04/04 09:21:07;;;;;;;;;2.25;1.25;;;;;10.70;38.81;101682.78;5040608;28;45348;-68
2022/04/04 09:23:45;;;;;;;;;2.25;2.00;;;;;10.67;38.07;101682.06;5041037;28;45255;-68
2022/04/04 09:26:43;;;;;;;;;3.00;1.50;;;;;10.68;37.81;101689.06;5048184;28;45354;-67
2022/04/04 09:29:20;;;;;;;;;2.00;2.00;;;;;10.70;38.03;101671.38;5042573;28;45234;-68
2022/04/04 09:32:05;;;;;;;;;2.00;2.00;;;;;10.73;37.92;101672.09;5060537;28;45513;-68
2022/04/04 09:34:53;;;;;;;;;4.00;2.00;;;;;10.71;37.62;101671.31;5060950;28;45446;-69
2022/04/04 09:37:21;;;;;;;;;3.00;1.00;;;;;10.68;37.33;101657.44;5060299;28;45371;-68
2022/04/04 09:39:48;;;;;;;;;3.50;2.00;;;;;10.55;37.43;101659.75;5060371;28;45438;-68
2022/04/04 09:42:18;;;;;;;;;1.75;1.00;;;;;10.47;36.78;101646.91;5046972;28;45264;-68
2022/04/04 09:45:08;;;;;;;;;1.25;1.25;;;;;10.45;37.37;101661.09;5060616;28;45533;-67
2022/04/04 09:47:51;;;;;;;;;2.75;1.00;;;;;10.43;37.08;101649.78;5060201;28;46186;-69
2022/04/04 09:50:45;;;;;;;;;2.00;2.00;;;;;10.44;36.69;101651.47;5060107;28;45313;-68
2022/04/04 09:53:16;;;;;;;;;2.00;1.75;;;;;10.48;37.47;101640.72;5060280;28;45349;-68
2022/04/04 09:55:47;;;;;;;;;2.00;2.00;;;;;10.57;37.34;101639.44;5049944;28;45335;-68
2022/04/04 09:58:15;;;;;;;;;2.50;2.50;;;;;10.59;37.07;101643.75;5039925;28;45586;-68
2022/04/04 10:00:44;;;;;;;;;2.00;2.00;;;;;10.63;36.91;101628.66;5041090;28;45410;-68
2022/04/04 10:03:13;;;;;;;;;2.00;1.50;;;;;10.69;36.75;101636.28;5043721;28;45346;-68
2022/04/04 10:06:05;;;;;;;;;2.00;2.00;;;;;10.75;36.72;101621.97;5043837;28;45282;-68
2022/04/04 10:08:32;;;;;;;;;4.00;3.50;;;;;10.83;36.91;101628.59;5046190;28;46159;-68
2022/04/04 10:10:58;;;;;;;;;2.50;2.50;;;;;10.90;36.27;101621.25;5063393;28;45221;-69
2022/04/04 10:13:25;;;;;;;;;2.00;2.00;;;;;10.90;36.28;101622.13;5063831;28;45313;-68
2022/04/04 10:15:52;;;;;;;;;2.00;2.00;;;;;10.90;35.83;101623.88;5063468;28;45431;-68
2022/04/04 10:18:19;;;;;;;;;2.75;2.00;;;;;10.99;35.91;101626.13;5063621;28;45304;-68
2022/04/04 10:20:56;;;;;;;;;3.00;1.00;;;;;11.14;35.92;101617.47;5063705;28;45217;-68
2022/04/04 10:23:25;;;;;;;;;3.00;2.00;;;;;11.32;36.19;101610.47;5034720;28;45197;-67
2022/04/04 10:25:52;;;;;;;;;2.75;2.75;;;;;11.53;36.17;101607.69;5043412;28;45416;-68
2022/04/04 10:28:29;;;;;;;;;2.00;2.00;;;;;11.73;35.43;101615.47;5042228;28;45390;-68
2022/04/04 10:31:00;;;;;;;;;2.25;2.25;;;;;11.78;35.41;101597.63;5044550;28;45284;-68
2022/04/04 10:33:26;;;;;;;;;2.00;2.00;;;;;11.84;35.18;101588.56;5043547;28;45373;-68
2022/04/04 10:36:04;;;;;;;;;4.00;3.00;;;;;11.99;35.35;101583.34;5043207;28;45556;-68
2022/04/04 10:38:32;;;;;;;;;1.25;1.25;;;;;12.23;35.13;101597.06;5043093;28;46316;-68
2022/04/04 10:41:00;;;;;;;;;3.00;2.75;;;;;12.40;34.89;101582.09;5052780;28;45313;-68
2022/04/04 10:43:31;;;;;;;;;2.25;1.25;;;;;12.54;34.70;101579.59;5059402;28;45435;-68
2022/04/04 10:46:02;;;;;;;;;1.00;1.00;;;;;12.65;34.27;101568.44;5063039;28;45466;-67
2022/04/04 10:48:33;;;;;;;;;5.00;3.00;;;;;12.73;34.25;101574.16;5062701;28;46352;-69
2022/04/04 10:51:12;;;;;;;;;8.25;3.00;;;;;12.71;33.84;101555.72;5062488;28;45234;-68
2022/04/04 10:53:43;;;;;;;;;3.50;2.00;;;;;12.72;33.83;101565.38;5063098;28;45275;-68
2022/04/04 10:56:11;;;;;;;;;3.00;3.00;;;;;12.76;33.40;101556.34;5048978;28;45215;-69
2022/04/04 10:58:37;;;;;;;;;2.00;2.00;;;;;12.78;33.36;101561.53;5042650;28;45398;-68
2022/04/04 11:01:16;;;;;;;;;2.00;2.00;;;;;12.76;33.41;101548.41;5042265;28;45338;-68
2022/04/04 11:03:59;;;;;;;;;4.00;2.75;;;;;12.77;33.34;101549.25;5042866;28;45158;-68
2022/04/04 11:09:32;;;;;;;;;2.75;1.75;;;;;12.74;33.21;101546.78;5042558;28;45297;-68
2022/04/04 11:12:00;;;;;;;;;4.00;3.50;;;;;12.75;33.05;101537.91;5041576;28;45233;-68
2022/04/04 11:14:31;;;;;;;;;4.25;3.50;;;;;12.70;33.37;101532.03;5042751;28;45344;-68
2022/04/04 11:17:05;;;;;;;;;4.75;4.75;;;;;12.66;33.27;101525.22;5042288;28;45479;-68
2022/04/04 11:19:46;;;;;;;;;5.00;4.00;;;;;12.69;33.15;101520.59;5042391;28;45388;-68
2022/04/04 11:22:23;;;;;;;;;5.00;2.25;;;;;12.72;33.21;101516.94;5042081;28;45348;-68
2022/04/04 11:25:03;;;;;;;;;3.00;3.00;;;;;12.78;33.32;101513.94;5042777;28;45253;-69
2022/04/04 11:27:30;;;;;;;;;5.00;3.75;;;;;12.88;33.39;101503.72;5042469;28;45235;-68
2022/04/04 11:29:55;;;;;;;;;3.75;3.75;;;;;12.98;33.20;101500.47;5042209;28;46030;-68